Time;durP1;ratioP1;P1;durP2;ratioP2;P2;SDS_P1;SDS_P2;PMS_P1;PMS_P2;Temp;Humidity;BMP_temperature;BMP_pressure;BME280_temperature;BME280_humidity;BME280_pressure;Samples;Min_cycle;Max_cycle;Signal;HPM_P1;HPM_P2
2021/07/08 00:02:20;;;;;;;15.93;10.85;;;;;;;;;;5034347;28;20092;-66
2021/07/08 00:04:46;;;;;;;17.92;11.00;;;;;;;;;;5036860;28;20366;-66
2021/07/08 00:07:11;;;;;;;16.63;10.45;;;;;;;;;;5031003;28;20018;-67
2021/07/08 00:09:37;;;;;;;17.65;11.98;;;;;;;;;;5038658;28;20329;-66
2021/07/08 00:12:02;;;;;;;20.25;11.00;;;;;;;;;;5032313;28;20025;-67
2021/07/08 00:14:27;;;;;;;16.13;10.15;;;;;;;;;;5031372;28;20040;-65
2021/07/08 00:16:53;;;;;;;15.52;9.75;;;;;;;;;;5031476;28;20087;-66
2021/07/08 00:19:18;;;;;;;15.48;9.35;;;;;;;;;;5027157;28;20111;-66
2021/07/08 00:21:43;;;;;;;17.88;11.02;;;;;;;;;;5033447;28;20036;-66
2021/07/08 00:24:09;;;;;;;15.85;9.90;;;;;;;;;;5034766;28;20017;-67
2021/07/08 00:26:34;;;;;;;17.05;11.07;;;;;;;;;;5034729;28;20029;-67
2021/07/08 00:28:59;;;;;;;14.80;10.50;;;;;;;;;;5035224;28;20059;-66
2021/07/08 00:31:24;;;;;;;14.98;9.48;;;;;;;;;;5029569;28;20033;-66
2021/07/08 00:33:50;;;;;;;15.50;9.55;;;;;;;;;;5030032;28;20030;-67
2021/07/08 00:36:15;;;;;;;16.65;8.93;;;;;;;;;;5030394;28;20041;-66
2021/07/08 00:38:40;;;;;;;14.73;9.20;;;;;;;;;;5038082;28;20025;-67
2021/07/08 00:41:05;;;;;;;15.05;9.75;;;;;;;;;;5031167;28;20076;-66
2021/07/08 00:43:31;;;;;;;12.00;8.75;;;;;;;;;;5032387;28;20021;-66
2021/07/08 00:45:59;;;;;;;15.10;9.70;;;;;;;;;;5036376;28;20112;-68
2021/07/08 00:48:25;;;;;;;14.35;9.48;;;;;;;;;;5039132;28;20029;-67
2021/07/08 00:50:50;;;;;;;14.88;10.73;;;;;;;;;;5037867;28;20059;-66
2021/07/08 00:53:17;;;;;;;14.80;10.68;;;;;;;;;;5032120;28;20794;-66
2021/07/08 00:55:44;;;;;;;15.20;11.13;;;;;;;;;;5033842;28;20063;-66
2021/07/08 00:58:10;;;;;;;16.00;10.45;;;;;;;;;;5029974;28;20022;-67
2021/07/08 01:00:36;;;;;;;14.65;10.13;;;;;;;;;;5026149;28;20040;-66
2021/07/08 01:03:03;;;;;;;14.68;9.75;;;;;;;;;;5022422;28;20472;-66
2021/07/08 01:05:32;;;;;;;16.90;10.88;;;;;;;;;;5026562;28;20646;-65
2021/07/08 01:07:58;;;;;;;13.82;9.10;;;;;;;;;;5031014;28;20045;-67
2021/07/08 01:10:24;;;;;;;14.95;9.73;;;;;;;;;;5041484;28;20552;-66
2021/07/08 01:12:49;;;;;;;13.65;9.68;;;;;;;;;;5026688;28;20108;-66
2021/07/08 01:15:14;;;;;;;11.48;8.52;;;;;;;;;;5033172;28;20029;-66
2021/07/08 01:17:40;;;;;;;13.45;8.75;;;;;;;;;;5027812;28;20079;-66
2021/07/08 01:20:06;;;;;;;12.95;8.07;;;;;;;;;;5028474;28;20017;-65
2021/07/08 01:22:31;;;;;;;10.70;8.02;;;;;;;;;;5028306;28;20493;-66
2021/07/08 01:24:56;;;;;;;11.55;8.25;;;;;;;;;;5031083;28;20036;-66
2021/07/08 01:27:22;;;;;;;10.60;7.95;;;;;;;;;;5028134;28;20485;-66
2021/07/08 01:29:47;;;;;;;10.02;6.90;;;;;;;;;;5041225;28;20047;-66
2021/07/08 01:32:12;;;;;;;11.82;8.15;;;;;;;;;;5039427;28;20036;-67
2021/07/08 01:34:37;;;;;;;11.90;9.00;;;;;;;;;;5034115;28;20025;-66
2021/07/08 01:37:03;;;;;;;9.80;7.22;;;;;;;;;;5035092;28;20307;-68
2021/07/08 01:39:28;;;;;;;10.48;7.18;;;;;;;;;;5037954;28;20067;-69
2021/07/08 01:41:53;;;;;;;8.70;6.65;;;;;;;;;;5031191;28;20622;-67
2021/07/08 01:44:18;;;;;;;8.35;6.50;;;;;;;;;;5030726;28;20070;-65
2021/07/08 01:46:44;;;;;;;8.85;6.72;;;;;;;;;;5031787;28;20029;-67
2021/07/08 01:49:09;;;;;;;9.35;7.18;;;;;;;;;;5044850;28;20067;-66
2021/07/08 01:51:35;;;;;;;11.35;6.68;;;;;;;;;;5036758;28;20040;-66
2021/07/08 01:54:01;;;;;;;10.18;7.45;;;;;;;;;;5028887;28;20485;-65
2021/07/08 01:56:26;;;;;;;10.75;6.88;;;;;;;;;;5033884;28;20179;-66
2021/07/08 01:58:52;;;;;;;8.27;6.80;;;;;;;;;;5037745;28;20025;-66
2021/07/08 02:01:18;;;;;;;12.25;6.88;;;;;;;;;;5028599;28;20033;-66
2021/07/08 02:03:43;;;;;;;8.57;7.10;;;;;;;;;;5041764;28;20591;-65
2021/07/08 02:06:08;;;;;;;6.88;5.70;;;;;;;;;;5028658;28;20111;-66
2021/07/08 02:08:36;;;;;;;10.20;6.78;;;;;;;;;;5029765;28;20492;-65
2021/07/08 02:11:01;;;;;;;9.57;6.95;;;;;;;;;;5037941;28;20380;-66
2021/07/08 02:13:26;;;;;;;8.18;6.60;;;;;;;;;;5025653;28;20040;-66
2021/07/08 02:15:51;;;;;;;8.77;6.25;;;;;;;;;;5034558;28;20036;-66
2021/07/08 02:18:17;;;;;;;9.38;5.75;;;;;;;;;;5028402;28;20029;-64
2021/07/08 02:20:42;;;;;;;7.50;4.80;;;;;;;;;;5030971;28;20389;-67
2021/07/08 02:23:07;;;;;;;6.68;4.65;;;;;;;;;;5033373;28;20029;-67
2021/07/08 02:25:32;;;;;;;7.63;5.03;;;;;;;;;;5029948;28;20026;-66
2021/07/08 02:27:58;;;;;;;7.32;5.35;;;;;;;;;;5032079;28;20770;-66
2021/07/08 02:30:25;;;;;;;7.30;4.70;;;;;;;;;;5032896;28;20038;-67
2021/07/08 02:32:52;;;;;;;5.82;4.75;;;;;;;;;;5038613;28;20037;-66
2021/07/08 02:35:18;;;;;;;8.88;5.75;;;;;;;;;;5028810;28;20045;-66
2021/07/08 02:37:43;;;;;;;6.68;5.03;;;;;;;;;;5032318;28;20017;-66
2021/07/08 02:40:10;;;;;;;7.35;5.45;;;;;;;;;;5033582;28;20040;-66
2021/07/08 02:42:36;;;;;;;9.45;5.40;;;;;;;;;;5025622;28;20045;-65
2021/07/08 02:45:01;;;;;;;8.90;6.00;;;;;;;;;;5034048;28;20439;-66
2021/07/08 02:47:26;;;;;;;8.15;5.30;;;;;;;;;;5037116;28;20120;-67
2021/07/08 02:49:51;;;;;;;7.45;5.45;;;;;;;;;;5031756;28;20028;-67
2021/07/08 02:52:17;;;;;;;7.97;5.53;;;;;;;;;;5038196;28;20029;-66
2021/07/08 02:54:42;;;;;;;10.88;5.68;;;;;;;;;;5035252;28;21025;-68
2021/07/08 02:57:07;;;;;;;6.85;5.50;;;;;;;;;;5036982;28;20041;-66
2021/07/08 02:59:32;;;;;;;8.35;5.38;;;;;;;;;;5029648;28;20441;-65
2021/07/08 03:01:57;;;;;;;7.13;4.97;;;;;;;;;;5026653;28;20023;-67
2021/07/08 03:04:22;;;;;;;7.90;5.22;;;;;;;;;;5034058;28;20268;-67
2021/07/08 03:06:48;;;;;;;8.00;5.13;;;;;;;;;;5030719;28;20329;-66
2021/07/08 03:09:13;;;;;;;7.70;6.00;;;;;;;;;;5035969;28;20268;-66
2021/07/08 03:11:38;;;;;;;6.95;5.47;;;;;;;;;;5034513;28;20771;-66
2021/07/08 03:14:03;;;;;;;6.28;5.03;;;;;;;;;;5036349;28;20025;-67
2021/07/08 03:16:28;;;;;;;6.13;5.00;;;;;;;;;;5035137;28;20056;-66
2021/07/08 03:18:53;;;;;;;7.65;5.28;;;;;;;;;;5041124;28;20766;-67
2021/07/08 03:21:19;;;;;;;8.05;5.70;;;;;;;;;;5039161;28;20045;-67
2021/07/08 03:23:44;;;;;;;8.40;5.47;;;;;;;;;;5029508;28;20021;-66
2021/07/08 03:26:09;;;;;;;5.80;4.53;;;;;;;;;;5038818;28;20025;-66
2021/07/08 03:28:35;;;;;;;8.70;4.85;;;;;;;;;;5037783;28;20032;-67
2021/07/08 03:31:00;;;;;;;7.38;5.28;;;;;;;;;;5042048;28;20025;-67
2021/07/08 03:33:25;;;;;;;7.35;5.00;;;;;;;;;;5035639;28;20022;-66
2021/07/08 03:35:50;;;;;;;12.97;6.47;;;;;;;;;;5031921;28;20037;-66
2021/07/08 03:38:16;;;;;;;6.95;4.90;;;;;;;;;;5030613;28;20275;-67
2021/07/08 03:40:42;;;;;;;9.85;5.20;;;;;;;;;;5029993;28;20025;-65
2021/07/08 03:43:07;;;;;;;7.75;5.45;;;;;;;;;;5028749;28;20052;-66
2021/07/08 03:45:32;;;;;;;6.70;5.38;;;;;;;;;;5043676;28;20132;-66
2021/07/08 03:47:58;;;;;;;7.27;5.13;;;;;;;;;;5030636;28;20028;-67
2021/07/08 03:50:23;;;;;;;6.95;5.13;;;;;;;;;;5030542;28;20316;-66
2021/07/08 03:52:49;;;;;;;9.68;5.20;;;;;;;;;;5030929;28;20191;-67
2021/07/08 03:55:19;;;;;;;7.35;5.28;;;;;;;;;;5032316;28;20033;-67
2021/07/08 03:57:53;;;;;;;7.60;5.55;;;;;;;;;;5029795;28;20037;-66
2021/07/08 04:00:29;;;;;;;7.90;5.10;;;;;;;;;;5032374;28;20060;-65
2021/07/08 04:02:54;;;;;;;6.50;5.00;;;;;;;;;;5031950;28;20978;-66
2021/07/08 04:05:20;;;;;;;6.10;4.93;;;;;;;;;;5036015;28;20100;-66
2021/07/08 04:07:45;;;;;;;6.00;4.30;;;;;;;;;;5036200;28;20028;-67
2021/07/08 04:10:10;;;;;;;7.10;4.20;;;;;;;;;;5030429;28;20327;-66
2021/07/08 04:12:36;;;;;;;7.50;4.30;;;;;;;;;;5030621;28;20272;-67
2021/07/08 04:15:01;;;;;;;8.07;4.30;;;;;;;;;;5029438;28;20010;-66
2021/07/08 04:17:26;;;;;;;7.95;4.70;;;;;;;;;;5024428;28;20060;-67
2021/07/08 04:19:51;;;;;;;5.80;4.77;;;;;;;;;;5036738;28;20021;-67
2021/07/08 04:22:17;;;;;;;7.00;4.53;;;;;;;;;;5029074;28;20621;-66
2021/07/08 04:24:42;;;;;;;5.95;4.85;;;;;;;;;;5039990;28;20356;-66
2021/07/08 04:27:07;;;;;;;6.25;4.60;;;;;;;;;;5033376;28;20092;-66
2021/07/08 04:29:32;;;;;;;5.70;4.43;;;;;;;;;;5030126;28;20026;-67
2021/07/08 04:31:57;;;;;;;6.15;4.43;;;;;;;;;;5043517;28;20435;-66
2021/07/08 04:34:23;;;;;;;6.07;4.43;;;;;;;;;;5043698;28;20075;-67
2021/07/08 04:36:48;;;;;;;6.37;4.60;;;;;;;;;;5033860;28;20049;-66
2021/07/08 04:39:13;;;;;;;8.80;4.40;;;;;;;;;;5042062;28;21114;-66
2021/07/08 04:41:39;;;;;;;6.45;4.57;;;;;;;;;;5025963;28;20483;-66
2021/07/08 04:44:04;;;;;;;5.15;4.18;;;;;;;;;;5028694;28;20044;-65
2021/07/08 04:46:29;;;;;;;6.82;4.60;;;;;;;;;;5034033;28;20112;-67
2021/07/08 04:48:55;;;;;;;8.10;4.88;;;;;;;;;;5030164;28;20053;-67
2021/07/08 04:51:20;;;;;;;6.35;4.60;;;;;;;;;;5042537;28;20036;-67
2021/07/08 04:53:45;;;;;;;10.55;5.43;;;;;;;;;;5039471;28;20021;-67
2021/07/08 04:56:11;;;;;;;7.43;5.28;;;;;;;;;;5030038;28;20144;-66
2021/07/08 04:58:36;;;;;;;7.43;4.93;;;;;;;;;;5036595;28;20029;-67
2021/07/08 05:01:01;;;;;;;8.93;5.60;;;;;;;;;;5028589;28;20033;-68
2021/07/08 05:03:26;;;;;;;8.93;6.13;;;;;;;;;;5024987;28;20275;-67
2021/07/08 05:05:51;;;;;;;6.75;5.43;;;;;;;;;;5029204;28;20033;-62
2021/07/08 05:08:17;;;;;;;7.90;5.45;;;;;;;;;;5021621;28;20036;-63
2021/07/08 05:10:42;;;;;;;7.90;5.38;;;;;;;;;;5028011;28;20087;-63
2021/07/08 05:13:07;;;;;;;8.10;6.70;;;;;;;;;;5035878;28;20803;-63
2021/07/08 05:15:35;;;;;;;10.45;7.00;;;;;;;;;;5033087;28;20044;-63
2021/07/08 05:18:00;;;;;;;11.50;7.05;;;;;;;;;;5033777;28;20108;-64
2021/07/08 05:20:27;;;;;;;11.68;7.82;;;;;;;;;;5033023;28;20451;-63
2021/07/08 05:22:58;;;;;;;10.00;7.53;;;;;;;;;;5028513;28;20029;-63
2021/07/08 05:25:24;;;;;;;12.05;8.48;;;;;;;;;;5032065;28;20032;-64
2021/07/08 05:27:49;;;;;;;10.05;8.23;;;;;;;;;;5038471;28;20081;-63
2021/07/08 05:30:14;;;;;;;14.57;9.43;;;;;;;;;;5042234;28;20043;-63
2021/07/08 05:32:39;;;;;;;12.95;9.43;;;;;;;;;;5032773;28;20036;-63
2021/07/08 05:35:05;;;;;;;17.53;9.93;;;;;;;;;;5032264;28;20452;-64
2021/07/08 05:37:30;;;;;;;14.55;10.60;;;;;;;;;;5031954;28;20294;-64
2021/07/08 05:39:56;;;;;;;15.48;10.25;;;;;;;;;;5038183;28;20009;-63
2021/07/08 05:42:21;;;;;;;13.98;10.45;;;;;;;;;;5026529;28;20454;-63
2021/07/08 05:44:46;;;;;;;15.68;11.13;;;;;;;;;;5029425;28;20487;-63
2021/07/08 05:47:12;;;;;;;15.60;10.60;;;;;;;;;;5038369;28;20098;-64
2021/07/08 05:49:38;;;;;;;12.38;10.35;;;;;;;;;;5029987;28;20025;-63
2021/07/08 05:52:03;;;;;;;18.08;11.68;;;;;;;;;;5028308;28;20097;-64
2021/07/08 05:54:28;;;;;;;17.33;11.43;;;;;;;;;;5027737;28;21778;-63
2021/07/08 05:56:53;;;;;;;14.18;11.07;;;;;;;;;;5028747;28;20053;-63
2021/07/08 05:59:18;;;;;;;15.57;10.60;;;;;;;;;;5039304;28;20660;-63
2021/07/08 06:01:44;;;;;;;14.97;11.43;;;;;;;;;;5041957;28;20109;-64
2021/07/08 06:04:09;;;;;;;19.97;11.63;;;;;;;;;;5044107;28;20272;-63
2021/07/08 06:06:34;;;;;;;18.23;12.32;;;;;;;;;;5035438;28;20311;-64
2021/07/08 06:08:59;;;;;;;19.45;11.40;;;;;;;;;;5041763;28;20104;-64
2021/07/08 06:11:24;;;;;;;18.07;13.63;;;;;;;;;;5032517;28;20645;-63
2021/07/08 06:13:50;;;;;;;17.73;12.95;;;;;;;;;;5034248;28;20287;-63
2021/07/08 06:16:15;;;;;;;17.97;12.50;;;;;;;;;;5029728;28;20120;-62
2021/07/08 06:18:40;;;;;;;17.95;12.00;;;;;;;;;;5029036;28;20283;-63
2021/07/08 06:21:05;;;;;;;18.60;12.85;;;;;;;;;;5033461;28;20021;-64
2021/07/08 06:23:31;;;;;;;20.38;13.48;;;;;;;;;;5042679;28;20021;-64
2021/07/08 06:25:57;;;;;;;19.15;13.70;;;;;;;;;;5038817;28;20036;-64
2021/07/08 06:28:22;;;;;;;18.77;12.70;;;;;;;;;;5044446;28;20024;-64
2021/07/08 06:30:47;;;;;;;16.90;13.07;;;;;;;;;;5027171;28;20480;-65
2021/07/08 06:33:13;;;;;;;20.50;13.00;;;;;;;;;;5038495;28;20096;-65
2021/07/08 06:35:38;;;;;;;19.27;13.07;;;;;;;;;;5045838;28;20529;-64
2021/07/08 06:38:03;;;;;;;17.38;12.65;;;;;;;;;;5037055;28;20507;-63
2021/07/08 06:40:29;;;;;;;22.60;14.15;;;;;;;;;;5033009;28;20036;-64
2021/07/08 06:42:57;;;;;;;21.38;14.52;;;;;;;;;;5033806;28;20045;-65
2021/07/08 06:45:22;;;;;;;22.10;13.50;;;;;;;;;;5047491;28;20021;-65
2021/07/08 06:47:51;;;;;;;17.55;12.85;;;;;;;;;;5046161;28;20332;-64
2021/07/08 06:50:16;;;;;;;19.60;13.60;;;;;;;;;;5032807;28;20017;-65
2021/07/08 06:52:43;;;;;;;19.63;13.75;;;;;;;;;;5040202;28;20033;-66
2021/07/08 06:55:08;;;;;;;23.20;15.65;;;;;;;;;;5033726;28;20477;-64
2021/07/08 06:57:34;;;;;;;24.67;15.90;;;;;;;;;;5028719;28;20033;-63
2021/07/08 06:59:59;;;;;;;22.48;16.38;;;;;;;;;;5041258;28;20071;-65
2021/07/08 07:02:25;;;;;;;21.33;15.07;;;;;;;;;;5038909;28;20032;-64
2021/07/08 07:04:50;;;;;;;21.17;15.50;;;;;;;;;;5032744;28;20021;-64
2021/07/08 07:07:15;;;;;;;20.17;14.60;;;;;;;;;;5037287;28;20060;-63
2021/07/08 07:09:41;;;;;;;22.13;14.35;;;;;;;;;;5039563;28;21137;-64
2021/07/08 07:12:06;;;;;;;22.08;14.32;;;;;;;;;;5028606;28;20255;-63
2021/07/08 07:14:32;;;;;;;23.83;15.77;;;;;;;;;;5030996;28;20036;-64
2021/07/08 07:16:57;;;;;;;25.20;16.10;;;;;;;;;;5033073;28;20129;-64
2021/07/08 07:19:22;;;;;;;22.90;16.15;;;;;;;;;;5032337;28;20277;-64
2021/07/08 07:21:47;;;;;;;37.50;20.27;;;;;;;;;;5032268;28;20036;-63
2021/07/08 07:24:12;;;;;;;32.40;20.83;;;;;;;;;;5032388;28;20033;-69
2021/07/08 07:26:38;;;;;;;32.77;20.30;;;;;;;;;;5038950;28;20384;-64
2021/07/08 07:29:03;;;;;;;34.22;22.48;;;;;;;;;;5040643;28;20263;-64
2021/07/08 07:31:28;;;;;;;33.65;21.98;;;;;;;;;;5043235;28;20025;-62
2021/07/08 07:33:53;;;;;;;37.05;21.25;;;;;;;;;;5029923;28;20017;-63
2021/07/08 07:36:18;;;;;;;35.83;22.58;;;;;;;;;;5035440;28;20068;-64
2021/07/08 07:38:44;;;;;;;35.95;21.10;;;;;;;;;;5045249;28;20074;-63
2021/07/08 07:41:09;;;;;;;27.60;17.98;;;;;;;;;;5051740;28;20045;-64
2021/07/08 07:43:34;;;;;;;29.67;18.67;;;;;;;;;;5035827;28;20101;-63
2021/07/08 07:46:00;;;;;;;30.77;20.15;;;;;;;;;;5051076;28;20032;-63
2021/07/08 07:48:25;;;;;;;34.42;20.95;;;;;;;;;;5037831;28;20028;-63
2021/07/08 07:50:50;;;;;;;35.50;20.60;;;;;;;;;;5051323;28;20025;-64
2021/07/08 07:53:16;;;;;;;35.92;21.73;;;;;;;;;;5032637;28;20067;-63
2021/07/08 07:55:41;;;;;;;33.65;20.17;;;;;;;;;;5038496;28;20090;-64
2021/07/08 07:58:07;;;;;;;33.55;22.02;;;;;;;;;;5045353;28;20032;-64
2021/07/08 08:00:32;;;;;;;35.78;21.67;;;;;;;;;;5042069;28;20333;-64
2021/07/08 08:02:58;;;;;;;37.53;23.52;;;;;;;;;;5050749;28;20017;-64
2021/07/08 08:10:39;;;;;;;31.98;21.58;;;;;;;;;;5038902;28;20033;-63
2021/07/08 08:13:05;;;;;;;36.75;22.33;;;;;;;;;;5023183;28;20049;-64
2021/07/08 08:15:30;;;;;;;35.63;22.75;;;;;;;;;;5036289;28;20032;-63
2021/07/08 08:17:55;;;;;;;38.60;24.27;;;;;;;;;;5033295;28;20025;-64
2021/07/08 08:20:20;;;;;;;38.22;22.83;;;;;;;;;;5031513;28;20377;-64
2021/07/08 08:22:46;;;;;;;33.75;22.33;;;;;;;;;;5030037;28;20091;-64
2021/07/08 08:25:11;;;;;;;33.53;22.83;;;;;;;;;;5036243;28;20032;-64
2021/07/08 08:27:37;;;;;;;33.88;22.20;;;;;;;;;;5031138;28;20025;-63
2021/07/08 08:30:06;;;;;;;35.38;22.45;;;;;;;;;;5031093;28;20040;-64
2021/07/08 08:32:31;;;;;;;36.25;22.65;;;;;;;;;;5031365;28;20032;-63
2021/07/08 08:34:56;;;;;;;34.50;22.52;;;;;;;;;;5037105;28;20024;-63
2021/07/08 08:37:21;;;;;;;34.13;22.03;;;;;;;;;;5039506;28;20067;-64
2021/07/08 08:39:47;;;;;;;35.53;24.52;;;;;;;;;;5049981;28;20268;-63
2021/07/08 08:42:12;;;;;;;37.90;24.92;;;;;;;;;;5043769;28;20056;-63
2021/07/08 08:44:37;;;;;;;36.50;23.95;;;;;;;;;;5044945;28;20025;-62
2021/07/08 08:47:06;;;;;;;40.60;27.60;;;;;;;;;;5031227;28;20059;-63
2021/07/08 08:49:31;;;;;;;39.38;26.70;;;;;;;;;;5044070;28;20021;-63
2021/07/08 08:51:57;;;;;;;40.10;27.02;;;;;;;;;;5039461;28;20510;-63
2021/07/08 08:54:22;;;;;;;39.47;26.67;;;;;;;;;;5030348;28;20469;-63
2021/07/08 08:56:47;;;;;;;36.30;25.20;;;;;;;;;;5035612;28;20029;-63
2021/07/08 08:59:12;;;;;;;34.00;22.80;;;;;;;;;;5030744;28;20252;-63
2021/07/08 09:01:37;;;;;;;34.53;24.15;;;;;;;;;;5035478;28;20789;-64
2021/07/08 09:04:03;;;;;;;35.25;25.25;;;;;;;;;;5045031;28;20053;-62
2021/07/08 09:06:34;;;;;;;35.42;24.50;;;;;;;;;;5034000;28;20112;-64
2021/07/08 09:09:06;;;;;;;36.72;23.75;;;;;;;;;;5032581;28;20028;-63
2021/07/08 09:11:31;;;;;;;31.75;22.55;;;;;;;;;;5041671;28;20237;-62
2021/07/08 09:14:01;;;;;;;32.05;23.15;;;;;;;;;;5041941;28;20072;-63
2021/07/08 09:16:34;;;;;;;36.58;22.48;;;;;;;;;;5037617;28;20554;-63
2021/07/08 09:19:07;;;;;;;33.05;23.30;;;;;;;;;;5044354;28;20472;-63
2021/07/08 09:21:35;;;;;;;33.50;22.38;;;;;;;;;;5043165;28;20029;-63
2021/07/08 09:24:09;;;;;;;36.53;22.55;;;;;;;;;;5044428;28;20025;-62
2021/07/08 09:26:38;;;;;;;31.25;23.25;;;;;;;;;;5049501;28;20388;-64
2021/07/08 09:29:05;;;;;;;32.67;21.83;;;;;;;;;;5035214;28;20025;-62
2021/07/08 09:31:30;;;;;;;28.85;20.52;;;;;;;;;;5041981;28;20036;-63
2021/07/08 09:33:55;;;;;;;28.63;20.77;;;;;;;;;;5029643;28;20025;-63
2021/07/08 09:36:20;;;;;;;28.30;21.17;;;;;;;;;;5036065;28;20032;-63
2021/07/08 09:38:47;;;;;;;26.90;18.87;;;;;;;;;;5033050;28;20757;-64
2021/07/08 09:41:22;;;;;;;23.75;18.80;;;;;;;;;;5042070;28;20299;-65
2021/07/08 09:43:48;;;;;;;25.85;19.15;;;;;;;;;;5029731;28;20432;-64
2021/07/08 09:46:14;;;;;;;22.77;17.42;;;;;;;;;;5030022;28;20021;-62
2021/07/08 09:48:39;;;;;;;23.42;17.00;;;;;;;;;;5049133;28;20017;-63
2021/07/08 09:51:06;;;;;;;20.90;16.23;;;;;;;;;;5040032;28;20500;-66
2021/07/08 09:53:31;;;;;;;20.15;16.13;;;;;;;;;;5042835;28;20036;-65
2021/07/08 09:58:33;;;;;;;20.27;16.98;;;;;;;;;;5029663;28;20029;-63
2021/07/08 10:01:10;;;;;;;23.83;17.67;;;;;;;;;;5033949;28;20021;-63
2021/07/08 10:03:35;;;;;;;22.33;16.38;;;;;;;;;;5037692;28;20031;-64
2021/07/08 10:06:01;;;;;;;20.48;16.58;;;;;;;;;;5048526;28;20021;-64
2021/07/08 10:08:26;;;;;;;23.42;16.40;;;;;;;;;;5038977;28;20044;-63
2021/07/08 10:10:51;;;;;;;21.97;15.60;;;;;;;;;;5041792;28;20033;-63
2021/07/08 10:13:17;;;;;;;22.13;16.27;;;;;;;;;;5045484;28;20810;-63
2021/07/08 10:15:43;;;;;;;20.00;16.63;;;;;;;;;;5034967;28;20338;-62
2021/07/08 10:18:11;;;;;;;20.77;16.35;;;;;;;;;;5027899;28;20021;-62
2021/07/08 10:20:37;;;;;;;21.65;16.05;;;;;;;;;;5034523;28;20411;-64
2021/07/08 10:23:03;;;;;;;22.80;16.48;;;;;;;;;;5033792;28;20496;-63
2021/07/08 10:25:28;;;;;;;20.13;16.38;;;;;;;;;;5042559;28;20026;-64
2021/07/08 10:27:54;;;;;;;18.25;15.90;;;;;;;;;;5037478;28;20024;-63
2021/07/08 10:30:21;;;;;;;18.88;15.05;;;;;;;;;;5048185;28;20021;-63
2021/07/08 10:32:52;;;;;;;19.52;15.02;;;;;;;;;;5029723;28;20116;-64
2021/07/08 10:35:35;;;;;;;20.83;16.02;;;;;;;;;;5028702;28;20036;-63
2021/07/08 10:38:18;;;;;;;17.60;14.63;;;;;;;;;;5048304;28;20063;-63
2021/07/08 10:40:43;;;;;;;20.02;15.82;;;;;;;;;;5048266;28;20036;-63
2021/07/08 10:43:12;;;;;;;21.00;15.02;;;;;;;;;;5041297;28;20029;-63
2021/07/08 10:45:38;;;;;;;18.83;15.65;;;;;;;;;;5048263;28;20377;-62
2021/07/08 10:48:17;;;;;;;18.77;14.10;;;;;;;;;;5029502;28;20424;-63
2021/07/08 10:50:43;;;;;;;16.10;13.50;;;;;;;;;;5044292;28;20055;-63
2021/07/08 10:53:19;;;;;;;16.73;14.07;;;;;;;;;;5033978;28;20032;-63
2021/07/08 10:55:47;;;;;;;18.13;14.40;;;;;;;;;;5027404;28;20039;-64
2021/07/08 10:58:31;;;;;;;18.63;14.52;;;;;;;;;;5036099;28;20067;-63
2021/07/08 11:00:56;;;;;;;17.98;14.77;;;;;;;;;;5029112;28;20470;-64
2021/07/08 11:03:40;;;;;;;19.20;14.80;;;;;;;;;;5040384;28;20032;-63
2021/07/08 11:06:24;;;;;;;16.23;12.52;;;;;;;;;;5028906;28;20272;-63
2021/07/08 11:08:51;;;;;;;15.38;12.38;;;;;;;;;;5040880;28;20087;-64
2021/07/08 11:11:21;;;;;;;16.10;12.95;;;;;;;;;;5032333;28;20014;-63
2021/07/08 11:13:46;;;;;;;16.75;13.10;;;;;;;;;;5042091;28;20047;-63
2021/07/08 11:16:30;;;;;;;23.52;15.63;;;;;;;;;;5028006;28;20392;-64
2021/07/08 11:19:02;;;;;;;18.67;14.18;;;;;;;;;;5034555;28;20026;-64
2021/07/08 11:21:46;;;;;;;17.75;13.25;;;;;;;;;;5028583;28;20033;-65
2021/07/08 11:24:25;;;;;;;19.70;15.35;;;;;;;;;;5030191;28;20519;-64
2021/07/08 11:26:51;;;;;;;18.20;14.38;;;;;;;;;;5035445;28;20179;-64
2021/07/08 11:29:35;;;;;;;17.92;14.85;;;;;;;;;;5047939;28;20017;-64
2021/07/08 11:32:01;;;;;;;17.65;14.80;;;;;;;;;;5044330;28;20502;-65
2021/07/08 11:34:27;;;;;;;18.83;14.50;;;;;;;;;;5038669;28;20025;-63
2021/07/08 11:36:56;;;;;;;18.15;12.65;;;;;;;;;;5036044;28;20044;-64
2021/07/08 11:39:24;;;;;;;18.42;13.65;;;;;;;;;;5032520;28;20017;-64
2021/07/08 11:41:53;;;;;;;21.95;14.05;;;;;;;;;;5032364;28;20440;-67
2021/07/08 11:44:20;;;;;;;18.38;14.10;;;;;;;;;;5041874;28;20048;-64
2021/07/08 11:46:46;;;;;;;19.95;14.63;;;;;;;;;;5040089;28;20025;-65
2021/07/08 11:49:11;;;;;;;24.05;16.20;;;;;;;;;;5043065;28;20468;-64
2021/07/08 11:51:37;;;;;;;21.23;16.42;;;;;;;;;;5030302;28;20067;-63
2021/07/08 11:54:05;;;;;;;22.33;17.90;;;;;;;;;;5024295;28;20025;-65
2021/07/08 11:56:30;;;;;;;22.52;16.27;;;;;;;;;;5037343;28;20295;-63
2021/07/08 11:58:55;;;;;;;24.85;17.55;;;;;;;;;;5031682;28;20010;-63
2021/07/08 12:01:21;;;;;;;20.85;16.13;;;;;;;;;;5034485;28;20019;-63
2021/07/08 12:03:52;;;;;;;23.42;15.07;;;;;;;;;;5030173;28;20439;-64
2021/07/08 12:06:17;;;;;;;19.70;16.35;;;;;;;;;;5038105;28;20033;-64
2021/07/08 12:08:48;;;;;;;24.90;17.65;;;;;;;;;;5050057;28;20071;-65
2021/07/08 12:11:16;;;;;;;19.13;15.13;;;;;;;;;;5038638;28;20025;-66
2021/07/08 12:13:55;;;;;;;19.35;15.13;;;;;;;;;;5031273;28;20013;-63
2021/07/08 12:16:27;;;;;;;16.92;14.07;;;;;;;;;;5036423;28;20063;-62
2021/07/08 12:18:53;;;;;;;15.18;11.18;;;;;;;;;;5032774;28;20056;-63
2021/07/08 12:21:19;;;;;;;13.73;10.05;;;;;;;;;;5037397;28;20507;-65
2021/07/08 12:23:44;;;;;;;13.27;9.73;;;;;;;;;;5040642;28;20396;-64
2021/07/08 12:26:21;;;;;;;11.48;8.95;;;;;;;;;;5042129;28;20021;-64
2021/07/08 12:28:47;;;;;;;16.65;8.95;;;;;;;;;;5039500;28;20036;-64
2021/07/08 12:31:12;;;;;;;13.93;8.80;;;;;;;;;;5028362;28;20381;-64
2021/07/08 12:33:51;;;;;;;13.65;9.20;;;;;;;;;;5031535;28;20397;-64
2021/07/08 12:36:16;;;;;;;14.30;9.23;;;;;;;;;;5029850;28;20086;-63
2021/07/08 12:38:41;;;;;;;11.23;8.97;;;;;;;;;;5034225;28;20029;-63
2021/07/08 12:41:07;;;;;;;11.75;8.07;;;;;;;;;;5025916;28;20378;-65
2021/07/08 12:43:32;;;;;;;11.23;7.00;;;;;;;;;;5023708;28;20031;-63
2021/07/08 12:46:07;;;;;;;8.35;6.65;;;;;;;;;;5019171;28;20031;-64
2021/07/08 12:48:32;;;;;;;9.95;6.63;;;;;;;;;;5031312;28;20013;-63
2021/07/08 12:50:57;;;;;;;8.73;6.43;;;;;;;;;;5022351;28;20043;-63
2021/07/08 12:53:23;;;;;;;7.45;6.03;;;;;;;;;;5029233;28;20031;-65
2021/07/08 12:55:56;;;;;;;7.30;6.40;;;;;;;;;;5027408;28;20079;-64
2021/07/08 12:58:23;;;;;;;7.75;5.78;;;;;;;;;;5027689;28;20087;-64
2021/07/08 13:00:49;;;;;;;7.10;5.30;;;;;;;;;;5030456;28;20024;-63
2021/07/08 13:03:19;;;;;;;7.82;4.95;;;;;;;;;;5040986;28;20095;-64
2021/07/08 13:05:45;;;;;;;7.53;4.97;;;;;;;;;;5031682;28;20028;-64
2021/07/08 13:08:12;;;;;;;6.53;5.03;;;;;;;;;;5029050;28;20021;-65
2021/07/08 13:10:39;;;;;;;6.97;5.25;;;;;;;;;;5029327;28;20042;-64
2021/07/08 13:13:04;;;;;;;8.73;5.15;;;;;;;;;;5032306;28;20033;-65
2021/07/08 13:15:31;;;;;;;5.80;4.35;;;;;;;;;;5033937;28;20538;-64
2021/07/08 13:18:04;;;;;;;8.00;4.55;;;;;;;;;;5039835;28;20041;-67
2021/07/08 13:20:30;;;;;;;4.18;3.38;;;;;;;;;;5031032;28;20522;-64
2021/07/08 13:22:56;;;;;;;4.78;3.33;;;;;;;;;;5026844;28;20031;-65
2021/07/08 13:25:22;;;;;;;3.38;2.60;;;;;;;;;;5022945;28;20026;-65
2021/07/08 13:27:48;;;;;;;5.30;3.20;;;;;;;;;;5027163;28;20026;-65
2021/07/08 13:30:27;;;;;;;5.65;3.17;;;;;;;;;;5043921;28;20045;-64
2021/07/08 13:33:05;;;;;;;5.13;3.00;;;;;;;;;;5041524;28;20056;-64
2021/07/08 13:35:48;;;;;;;4.07;2.83;;;;;;;;;;5024769;28;20033;-65
2021/07/08 13:38:14;;;;;;;4.88;3.40;;;;;;;;;;5038432;28;20075;-65
2021/07/08 13:40:40;;;;;;;5.28;3.30;;;;;;;;;;5041062;28;20337;-63
2021/07/08 13:43:09;;;;;;;6.18;3.45;;;;;;;;;;5039738;28;20045;-64
2021/07/08 13:45:34;;;;;;;5.15;3.45;;;;;;;;;;5028929;28;20110;-63
2021/07/08 13:48:16;;;;;;;6.03;3.33;;;;;;;;;;5035581;28;20501;-64
2021/07/08 13:50:42;;;;;;;7.22;3.30;;;;;;;;;;5034173;28;20312;-64
2021/07/08 13:53:07;;;;;;;5.13;3.15;;;;;;;;;;5042502;28;20554;-63
2021/07/08 13:55:32;;;;;;;3.53;2.20;;;;;;;;;;5039517;28;20063;-64
2021/07/08 13:57:57;;;;;;;4.50;3.00;;;;;;;;;;5029324;28;20275;-63
2021/07/08 14:00:23;;;;;;;4.28;2.72;;;;;;;;;;5039321;28;20255;-64
2021/07/08 14:02:48;;;;;;;3.73;2.43;;;;;;;;;;5040364;28;20266;-63
2021/07/08 14:05:13;;;;;;;5.40;2.80;;;;;;;;;;5028776;28;20779;-63
2021/07/08 14:07:38;;;;;;;3.55;2.80;;;;;;;;;;5039368;28;20417;-63
2021/07/08 14:10:03;;;;;;;5.97;3.07;;;;;;;;;;5035164;28;20282;-64
2021/07/08 14:12:28;;;;;;;4.65;2.90;;;;;;;;;;5040532;28;20673;-63
2021/07/08 14:14:54;;;;;;;4.03;2.90;;;;;;;;;;5040121;28;20028;-63
2021/07/08 14:17:19;;;;;;;3.50;1.93;;;;;;;;;;5034988;28;20542;-63
2021/07/08 14:19:44;;;;;;;4.57;2.13;;;;;;;;;;5034613;28;20275;-63
2021/07/08 14:22:09;;;;;;;2.78;2.00;;;;;;;;;;5032520;28;20786;-64
2021/07/08 14:24:34;;;;;;;2.15;1.65;;;;;;;;;;5030027;28;20022;-64
2021/07/08 14:27:00;;;;;;;1.53;1.30;;;;;;;;;;5035763;28;20021;-63
2021/07/08 14:29:25;;;;;;;1.80;1.00;;;;;;;;;;5031429;28;20640;-68
2021/07/08 14:31:50;;;;;;;2.42;1.10;;;;;;;;;;5028046;28;20075;-62
2021/07/08 14:34:15;;;;;;;2.03;1.20;;;;;;;;;;5029487;28;20013;-63